createdAt,value
2018-07-08T06:20:06.145Z,211.6
2018-07-08T06:21:09.135Z,165.7
2018-07-08T06:22:12.381Z,163.2
2018-07-08T06:23:15.372Z,159.8
2018-07-08T06:24:18.332Z,156.9
2018-07-08T06:25:21.610Z,154.9
2018-07-08T06:26:24.635Z,152
2018-07-08T06:27:27.604Z,151.5
2018-07-08T06:28:30.319Z,149.1
2018-07-08T06:29:33.574Z,148.6
2018-07-08T06:30:36.559Z,149.1
2018-07-08T06:31:39.904Z,147.1
2018-07-08T06:32:43.040Z,150
2018-07-08T06:33:46.007Z,150
2018-07-08T06:34:48.992Z,151
2018-07-08T06:35:51.976Z,150
2018-07-08T06:36:55.232Z,150.5
2018-07-08T06:37:58.217Z,150.5
2018-07-08T06:39:00.643Z,149.6
2018-07-08T06:40:03.907Z,148.1
2018-07-08T06:41:07.169Z,150
2018-07-08T06:42:10.197Z,148.6
2018-07-08T06:43:13.202Z,148.6
2018-07-08T06:44:16.452Z,147.6
2018-07-08T06:45:19.717Z,149.6
2018-07-08T06:46:23.122Z,148.6
2018-07-08T06:47:26.117Z,148.6
2018-07-08T06:48:29.130Z,148.6
2018-07-08T06:49:32.100Z,148.6
2018-07-08T06:50:34.815Z,149.1
2018-07-08T06:51:37.809Z,148.6
2018-07-08T06:52:41.065Z,147.1
2018-07-08T06:53:43.753Z,148.1
2018-07-08T06:54:47.006Z,148.1
2018-07-08T06:55:50.279Z,147.1
2018-07-08T06:56:53.254Z,148.1
2018-07-08T06:57:56.490Z,148.6
2018-07-08T06:58:59.926Z,147.1
2018-07-08T07:00:03.187Z,146.6
2018-07-08T07:01:06.144Z,148.1
2018-07-08T07:02:09.131Z,148.1
2018-07-08T07:03:12.384Z,148.1
2018-07-08T07:04:15.639Z,148.1
2018-07-08T07:05:18.332Z,146.6
2018-07-08T07:06:21.312Z,146.6
2018-07-08T07:07:24.577Z,146.6
2018-07-08T07:08:27.009Z,148.1
2018-07-08T07:09:30.004Z,147.1
2018-07-08T07:10:33.001Z,146.1
2018-07-08T07:11:36.281Z,147.6
2018-07-08T07:12:39.276Z,146.6
2018-07-08T07:13:42.272Z,147.6
2018-07-08T07:14:45.538Z,146.6
2018-07-08T07:15:48.795Z,147.1
2018-07-08T07:16:51.776Z,147.6
2018-07-08T07:17:55.047Z,147.6
2018-07-08T07:18:58.305Z,147.1
2018-07-08T07:20:01.554Z,147.1
2018-07-08T07:21:04.804Z,146.1
2018-07-08T07:22:08.062Z,147.6
2018-07-08T07:23:11.307Z,145.7
2018-07-08T07:24:14.566Z,147.1
2018-07-08T07:25:17.542Z,145.7
2018-07-08T07:26:20.529Z,146.6
2018-07-08T07:27:24.085Z,147.1
2018-07-08T07:28:27.147Z,147.1
2018-07-08T07:29:30.109Z,146.6
2018-07-08T07:30:33.081Z,147.1
2018-07-08T07:31:36.336Z,147.1
2018-07-08T07:32:39.592Z,146.1
2018-07-08T07:33:42.848Z,145.7
2018-07-08T07:34:45.561Z,146.6
2018-07-08T07:35:48.537Z,147.6
2018-07-08T07:36:51.803Z,147.1
2018-07-08T07:37:55.050Z,146.6
2018-07-08T07:38:57.486Z,146.1
2018-07-08T07:40:00.733Z,146.1
2018-07-08T07:41:03.447Z,146.1
2018-07-08T07:42:06.701Z,145.2
2018-07-08T07:43:09.994Z,146.6
2018-07-08T07:44:12.986Z,146.6
2018-07-08T07:45:16.311Z,146.6
2018-07-08T07:46:19.287Z,147.1
2018-07-08T07:47:22.258Z,146.1
2018-07-08T07:48:25.393Z,146.6
2018-07-08T07:49:28.390Z,145.7
2018-07-08T07:50:31.391Z,146.6
2018-07-08T07:51:34.655Z,146.1
2018-07-08T07:52:37.655Z,145.7
2018-07-08T07:53:40.926Z,146.6
2018-07-08T07:54:43.907Z,145.7
2018-07-08T07:55:47.171Z,146.6
2018-07-08T07:56:50.149Z,146.1
2018-07-08T07:57:53.395Z,145.7
2018-07-08T07:58:56.478Z,146.1
2018-07-08T07:59:59.533Z,147.1
2018-07-08T08:01:02.797Z,145.2
2018-07-08T08:02:05.488Z,146.1
2018-07-08T08:03:08.760Z,145.7
2018-07-08T08:04:12.037Z,145.7
2018-07-08T08:05:15.028Z,145.2
2018-07-08T08:06:17.746Z,146.6
2018-07-08T08:07:21.011Z,146.1
2018-07-08T08:08:24.281Z,145.7
2018-07-08T08:09:27.663Z,146.6
2018-07-08T08:10:30.663Z,146.1
2018-07-08T08:11:33.920Z,146.1
2018-07-08T08:12:37.179Z,145.7
2018-07-08T08:13:40.160Z,146.6
2018-07-08T08:14:43.416Z,146.6
2018-07-08T08:15:46.414Z,146.1
2018-07-08T08:16:49.674Z,146.6
2018-07-08T08:17:52.924Z,146.1
2018-07-08T08:18:56.179Z,146.1
2018-07-08T08:19:59.156Z,146.6
2018-07-08T08:21:02.301Z,146.1
2018-07-08T08:22:05.375Z,146.1
2018-07-08T08:23:08.355Z,145.2
2018-07-08T08:24:11.364Z,146.1
2018-07-08T08:25:14.638Z,146.1
2018-07-08T08:26:17.939Z,145.2
2018-07-08T08:27:20.925Z,145.7
2018-07-08T08:28:23.612Z,145.2
2018-07-08T08:29:26.577Z,145.2
2018-07-08T08:30:29.559Z,146.1
2018-07-08T08:31:32.521Z,144.7
2018-07-08T08:32:35.775Z,144.2
2018-07-08T08:33:39.028Z,145.2
2018-07-08T08:34:42.299Z,145.7
2018-07-08T08:35:45.277Z,145.7
2018-07-08T08:36:48.273Z,145.7
2018-07-08T08:37:50.981Z,144.2
2018-07-08T08:38:53.969Z,146.6
2018-07-08T08:39:57.228Z,146.6
2018-07-08T08:41:00.505Z,147.6
2018-07-08T08:42:03.358Z,147.1
2018-07-08T08:43:06.046Z,148.6
2018-07-08T08:44:08.721Z,148.1
2018-07-08T08:45:11.155Z,147.1
2018-07-08T08:46:14.763Z,145.7
2018-07-08T08:47:18.014Z,147.1
2018-07-08T08:48:21.273Z,147.1
2018-07-08T08:49:24.545Z,145.7
2018-07-08T08:50:27.809Z,147.1
2018-07-08T08:51:30.507Z,145.7
2018-07-08T08:52:33.530Z,146.1
2018-07-08T08:53:37.095Z,145.2
2018-07-08T08:54:40.350Z,145.7
2018-07-08T08:55:43.611Z,147.6
2018-07-08T08:56:46.328Z,147.1
2018-07-08T08:57:49.645Z,146.6
2018-07-08T08:58:52.605Z,146.1
2018-07-08T08:59:56.069Z,146.6
2018-07-08T09:00:59.026Z,147.6
2018-07-08T09:02:02.297Z,147.6
2018-07-08T09:03:05.570Z,146.1
2018-07-08T09:04:09.011Z,146.6
2018-07-08T09:05:12.277Z,145.7
2018-07-08T09:06:15.546Z,146.1
2018-07-08T09:07:18.544Z,147.1
2018-07-08T09:08:21.820Z,147.1
2018-07-08T09:09:24.787Z,146.1
2018-07-08T09:10:28.049Z,146.1
2018-07-08T09:11:31.035Z,146.6
2018-07-08T09:12:34.299Z,147.1
2018-07-08T09:13:37.669Z,146.1
2018-07-08T09:14:40.623Z,146.6
2018-07-08T09:15:43.886Z,146.6
2018-07-08T09:16:46.952Z,146.1
2018-07-08T09:17:49.949Z,146.6
2018-07-08T09:18:52.635Z,146.6
2018-07-08T09:19:55.898Z,146.6
2018-07-08T09:20:58.853Z,146.6
2018-07-08T09:22:02.108Z,146.6
2018-07-08T09:23:05.103Z,147.1
2018-07-08T09:24:07.926Z,146.6
2018-07-08T09:25:11.527Z,146.6
2018-07-08T09:26:14.780Z,146.1
2018-07-08T09:27:17.755Z,147.6
2018-07-08T09:28:20.752Z,147.1
2018-07-08T09:29:24.035Z,147.1
2018-07-08T09:30:27.705Z,146.6
2018-07-08T09:31:30.688Z,146.6
2018-07-08T09:32:34.103Z,146.6
2018-07-08T09:33:37.699Z,145.7
2018-07-08T09:34:40.977Z,145.2
2018-07-08T09:35:44.245Z,147.1
2018-07-08T09:36:47.503Z,145.7
2018-07-08T09:37:50.751Z,145.2
2018-07-08T09:38:54.607Z,147.1
2018-07-08T09:39:58.098Z,145.7
2018-07-08T09:41:01.135Z,145.7
2018-07-08T09:42:04.406Z,145.7
2018-07-08T09:43:07.655Z,147.1
2018-07-08T09:44:10.917Z,146.1
2018-07-08T09:45:14.178Z,146.6
2018-07-08T09:46:17.137Z,147.1
2018-07-08T09:47:20.435Z,146.1
2018-07-08T09:48:23.692Z,146.6
2018-07-08T09:49:26.947Z,145.7
2018-07-08T09:50:30.207Z,145.2
2018-07-08T09:51:33.465Z,146.1
2018-07-08T09:52:36.059Z,147.6
2018-07-08T09:53:38.786Z,146.1
2018-07-08T09:54:42.044Z,146.6
2018-07-08T09:55:45.166Z,146.1
2018-07-08T09:56:48.160Z,146.1
2018-07-08T09:57:50.700Z,147.1
2018-07-08T09:58:53.952Z,146.1
2018-07-08T09:59:56.935Z,147.1
2018-07-08T10:00:59.978Z,146.1
2018-07-08T10:02:03.034Z,146.6
2018-07-08T10:03:06.301Z,146.1
2018-07-08T10:04:08.987Z,146.6
2018-07-08T10:05:11.964Z,147.1
2018-07-08T10:06:14.958Z,148.6
2018-07-08T10:07:17.933Z,148.1
2018-07-08T10:08:20.932Z,147.1
2018-07-08T10:09:24.191Z,146.6
2018-07-08T10:10:27.166Z,147.1
2018-07-08T10:11:30.437Z,145.7
2018-07-08T10:12:33.266Z,146.6
2018-07-08T10:13:36.277Z,146.6
2018-07-08T10:14:39.622Z,148.1
2018-07-08T10:15:42.887Z,146.6
2018-07-08T10:16:46.147Z,145.7
2018-07-08T10:17:50.157Z,148.1
2018-07-08T10:18:54.192Z,146.6
2018-07-08T10:19:57.458Z,147.6
2018-07-08T10:21:00.706Z,145.7
2018-07-08T10:22:03.680Z,147.1
2018-07-08T10:23:06.664Z,146.1
2018-07-08T10:24:09.631Z,147.6
2018-07-08T10:25:13.000Z,147.1
2018-07-08T10:26:16.321Z,147.1
2018-07-08T10:27:19.305Z,147.1
2018-07-08T10:28:22.682Z,147.1
2018-07-08T10:29:25.938Z,146.6
2018-07-08T10:30:29.617Z,145.7
2018-07-08T10:31:32.918Z,146.6
2018-07-08T10:32:35.904Z,147.1
2018-07-08T10:33:38.613Z,146.6
2018-07-08T10:34:41.615Z,146.1
2018-07-08T10:35:44.856Z,145.7
2018-07-08T10:36:48.110Z,144.7
2018-07-08T10:37:51.051Z,146.6
2018-07-08T10:38:54.311Z,145.7
2018-07-08T10:39:57.577Z,145.2
2018-07-08T10:41:01.035Z,145.7
2018-07-08T10:42:03.736Z,146.6
2018-07-08T10:43:06.730Z,145.2
2018-07-08T10:44:09.984Z,145.2
2018-07-08T10:45:13.001Z,144.7
2018-07-08T10:46:16.264Z,145.7
2018-07-08T10:47:19.247Z,145.7
2018-07-08T10:48:22.520Z,146.1
2018-07-08T10:49:25.500Z,146.1
2018-07-08T10:50:28.466Z,147.1
2018-07-08T10:51:31.725Z,145.7
2018-07-08T10:52:34.721Z,147.1
2018-07-08T10:53:37.708Z,145.7
2018-07-08T10:54:40.724Z,145.2
2018-07-08T10:55:43.707Z,145.2
2018-07-08T10:56:46.955Z,146.1
2018-07-08T10:57:49.948Z,144.7
2018-07-08T10:58:52.631Z,146.1
2018-07-08T10:59:55.889Z,146.1
2018-07-08T11:00:58.595Z,143.7
2018-07-08T11:02:01.295Z,145.2
2018-07-08T11:03:04.544Z,144.7
2018-07-08T11:04:07.001Z,145.7
2018-07-08T11:05:10.254Z,146.1
2018-07-08T11:06:13.511Z,145.2
2018-07-08T11:07:15.916Z,146.1
2018-07-08T11:08:18.864Z,147.1
2018-07-08T11:09:22.123Z,146.1
2018-07-08T11:10:25.378Z,146.1
2018-07-08T11:11:28.651Z,145.7
2018-07-08T11:12:31.627Z,146.1
2018-07-08T11:13:34.627Z,144.2
2018-07-08T11:14:37.624Z,144.7
2018-07-08T11:15:40.314Z,145.7
2018-07-08T11:16:43.282Z,144.7
2018-07-08T11:17:46.550Z,145.2
2018-07-08T11:18:49.822Z,144.7
2018-07-08T11:19:53.082Z,145.7
2018-07-08T11:20:56.622Z,144.7
2018-07-08T11:21:59.678Z,145.7
2018-07-08T11:23:02.944Z,144.2
2018-07-08T11:24:06.207Z,144.7
2018-07-08T11:25:09.452Z,145.7
2018-07-08T11:26:12.446Z,145.2
2018-07-08T11:27:15.422Z,143.7
2018-07-08T11:28:18.677Z,144.2
2018-07-08T11:29:21.947Z,145.2
2018-07-08T11:30:25.189Z,143.7
2018-07-08T11:31:28.171Z,144.7
2018-07-08T11:32:31.132Z,144.7
2018-07-08T11:33:34.386Z,144.7
2018-07-08T11:34:37.643Z,144.2
2018-07-08T11:35:40.599Z,144.7
2018-07-08T11:36:43.329Z,144.7
2018-07-08T11:37:46.022Z,144.2
2018-07-08T11:38:49.024Z,144.2
2018-07-08T11:39:52.286Z,144.2
2018-07-08T11:40:55.538Z,145.2
2018-07-08T11:41:58.678Z,144.2
2018-07-08T11:43:02.307Z,144.7
2018-07-08T11:44:05.796Z,144.7
2018-07-08T11:45:09.059Z,144.2
2018-07-08T11:46:11.641Z,143.7
2018-07-08T11:47:15.404Z,144.2
2018-07-08T11:48:18.379Z,144.7
2018-07-08T11:49:20.806Z,144.2
2018-07-08T11:50:23.779Z,144.7
2018-07-08T11:51:26.884Z,144.2
2018-07-08T11:52:30.148Z,143.7
2018-07-08T11:53:33.396Z,143.7
2018-07-08T11:54:36.385Z,144.7
2018-07-08T11:55:39.636Z,143.7
2018-07-08T11:56:42.894Z,143.7
2018-07-08T11:57:45.876Z,144.2
2018-07-08T11:58:49.175Z,145.2
2018-07-08T11:59:52.426Z,143.7
2018-07-08T12:00:55.687Z,144.7
2018-07-08T12:01:59.153Z,145.2
2018-07-08T12:03:01.559Z,144.2
2018-07-08T12:04:04.912Z,143.7
2018-07-08T12:05:07.722Z,145.2
2018-07-08T12:06:10.987Z,143.2
2018-07-08T12:07:13.967Z,145.2
2018-07-08T12:08:16.643Z,144.2
2018-07-08T12:09:19.907Z,145.2
2018-07-08T12:10:23.164Z,143.7
2018-07-08T12:11:26.124Z,145.2
2018-07-08T12:12:29.371Z,145.2
2018-07-08T12:13:32.636Z,145.2
2018-07-08T12:14:36.163Z,144.2
2018-07-08T12:15:39.205Z,145.2
2018-07-08T12:16:42.445Z,144.2
2018-07-08T12:17:45.702Z,144.7
2018-07-08T12:18:48.963Z,144.7
2018-07-08T12:19:51.954Z,143.7
2018-07-08T12:20:55.206Z,141.3
2018-07-08T12:21:58.216Z,141.7
2018-07-08T12:23:01.481Z,141.3
2018-07-08T12:24:04.741Z,140.8
2018-07-08T12:25:08.037Z,141.3
2018-07-08T12:26:10.756Z,140.3
2018-07-08T12:27:14.065Z,140.3
2018-07-08T12:28:17.326Z,141.3
2018-07-08T12:29:20.306Z,140.3
2018-07-08T12:30:23.025Z,141.3
2018-07-08T12:31:26.115Z,140.8
2018-07-08T12:32:29.391Z,140.8
2018-07-08T12:33:32.644Z,140.3
2018-07-08T12:34:35.919Z,141.3
2018-07-08T12:35:38.627Z,140.3
2018-07-08T12:36:42.029Z,140.8
2018-07-08T12:37:45.339Z,140.8
2018-07-08T12:38:48.775Z,141.7
2018-07-08T12:39:51.467Z,140.8
2018-07-08T12:40:54.457Z,140.3
2018-07-08T12:41:57.729Z,139.8
2018-07-08T12:43:01.086Z,141.3
2018-07-08T12:44:04.422Z,141.3
2018-07-08T12:45:07.405Z,141.7
2018-07-08T12:46:10.384Z,140.3
2018-07-08T12:47:13.638Z,141.3
2018-07-08T12:48:16.622Z,141.3
2018-07-08T12:49:19.870Z,140.8
2018-07-08T12:50:23.135Z,140.3
2018-07-08T12:51:26.499Z,140.3
2018-07-08T12:52:29.197Z,141.3
2018-07-08T12:53:32.567Z,141.3
2018-07-08T12:54:35.315Z,141.3
2018-07-08T12:55:38.395Z,141.3
2018-07-08T12:56:41.645Z,141.3
2018-07-08T12:57:45.012Z,141.3
2018-07-08T12:58:48.654Z,139.8
2018-07-08T12:59:51.805Z,140.3
2018-07-08T13:00:54.796Z,141.3
2018-07-08T13:01:57.487Z,140.8
2018-07-08T13:03:00.761Z,140.8
2018-07-08T13:04:03.720Z,141.3
2018-07-08T13:05:06.992Z,140.3
2018-07-08T13:06:10.261Z,141.7
2018-07-08T13:07:13.520Z,140.3
2018-07-08T13:08:16.223Z,140.3
2018-07-08T13:09:19.637Z,140.3
2018-07-08T13:10:22.605Z,141.3
2018-07-08T13:11:25.594Z,139.8
2018-07-08T13:12:28.852Z,140.8
2018-07-08T13:13:32.175Z,141.3
2018-07-08T13:14:34.903Z,139.8
2018-07-08T13:15:38.165Z,141.3
2018-07-08T13:16:41.754Z,139.8
2018-07-08T13:17:45.027Z,141.3
2018-07-08T13:18:48.062Z,140.3
2018-07-08T13:19:50.849Z,140.3
2018-07-08T13:20:54.468Z,141.3
2018-07-08T13:21:57.472Z,140.8
2018-07-08T13:23:00.454Z,141.7
2018-07-08T13:28:15.761Z,138.8
2018-07-08T13:29:19.025Z,141.3
2018-07-08T13:30:22.299Z,141.7
2018-07-08T13:31:25.545Z,140.8
2018-07-08T13:32:29.347Z,140.3
2018-07-08T13:33:32.915Z,140.3
2018-07-08T13:34:35.894Z,140.8
2018-07-08T13:35:39.189Z,141.7
2018-07-08T13:36:42.254Z,139.8
2018-07-08T13:37:45.528Z,141.7
2018-07-08T13:38:48.618Z,141.7
2018-07-08T13:39:51.982Z,139.8
2018-07-08T13:40:55.253Z,141.3
2018-07-08T13:41:58.521Z,141.3
2018-07-08T13:43:01.787Z,141.3
2018-07-08T13:44:05.044Z,140.3
2018-07-08T13:45:08.315Z,141.3
2018-07-08T13:46:11.567Z,140.8
2018-07-08T13:47:14.864Z,140.3
2018-07-08T13:48:17.892Z,141.3
2018-07-08T13:49:21.158Z,140.8
2018-07-08T13:50:24.113Z,141.3
2018-07-08T13:51:27.106Z,140.8
2018-07-08T13:52:29.811Z,140.3
2018-07-08T13:53:33.077Z,139.8
2018-07-08T13:54:36.336Z,141.7
2018-07-08T13:55:39.974Z,141.3
2018-07-08T13:56:43.071Z,140.3
2018-07-08T13:57:46.322Z,140.8
2018-07-08T13:58:49.591Z,141.3
2018-07-08T13:59:52.566Z,141.3
2018-07-08T14:00:55.620Z,140.8
2018-07-08T14:01:58.645Z,141.3
2018-07-08T14:03:01.953Z,140.8
2018-07-08T14:04:05.234Z,140.3
2018-07-08T14:05:08.503Z,139.8
2018-07-08T14:06:11.229Z,141.3
2018-07-08T14:07:14.206Z,141.7
2018-07-08T14:08:17.455Z,141.3
2018-07-08T14:09:21.051Z,139.8
2018-07-08T14:10:24.644Z,139.8
2018-07-08T14:11:27.896Z,140.3
2018-07-08T14:12:30.590Z,141.7
2018-07-08T14:13:33.857Z,141.3
2018-07-08T14:14:37.255Z,140.8
2018-07-08T14:15:40.006Z,140.3
2018-07-08T14:16:42.973Z,140.3
2018-07-08T14:17:46.286Z,140.3
2018-07-08T14:18:49.059Z,141.3
2018-07-08T14:19:52.035Z,141.7
2018-07-08T14:20:55.204Z,140.8
2018-07-08T14:21:58.208Z,139.8
2018-07-08T14:23:01.465Z,141.3
2018-07-08T14:24:04.444Z,140.3
2018-07-08T14:25:07.707Z,140.3
2018-07-08T14:26:10.965Z,141.3
2018-07-08T14:27:13.677Z,140.8
2018-07-08T14:28:16.930Z,141.3
2018-07-08T14:29:20.319Z,141.3
2018-07-08T14:30:23.379Z,140.3
2018-07-08T14:31:26.341Z,140.3
2018-07-08T14:32:29.640Z,140.3
2018-07-08T14:33:32.919Z,140.8
2018-07-08T14:34:36.193Z,139.8
2018-07-08T14:35:39.187Z,139.8
2018-07-08T14:36:42.458Z,139.8
2018-07-08T14:37:45.698Z,139.3
2018-07-08T14:38:48.418Z,139.3
2018-07-08T14:39:51.704Z,139.8
2018-07-08T14:40:54.963Z,139.8
2018-07-08T14:41:57.932Z,140.3
2018-07-08T14:43:01.190Z,139.8
2018-07-08T14:44:04.504Z,139.8
2018-07-08T14:45:07.483Z,139.8
2018-07-08T14:46:11.029Z,139.8
2018-07-08T14:47:14.070Z,140.8
2018-07-08T14:48:17.437Z,140.8
2018-07-08T14:49:20.423Z,139.8
2018-07-08T14:50:23.671Z,141.3
2018-07-08T14:51:26.931Z,140.3
2018-07-08T14:52:29.926Z,140.8
2018-07-08T14:53:32.967Z,140.8
2018-07-08T14:54:36.241Z,141.3
2018-07-08T14:55:39.239Z,140.8
2018-07-08T14:56:42.280Z,140.8
2018-07-08T14:57:45.557Z,141.3
2018-07-08T14:58:48.829Z,141.3
2018-07-08T14:59:51.825Z,140.8
2018-07-08T15:00:55.098Z,140.3
2018-07-08T15:01:57.797Z,141.7
2018-07-08T15:03:00.514Z,140.8
2018-07-08T15:04:03.778Z,139.8
2018-07-08T15:05:06.777Z,139.8
2018-07-08T15:06:10.031Z,139.8
2018-07-08T15:07:12.984Z,141.7
2018-07-08T15:08:15.758Z,140.8
2018-07-08T15:09:18.919Z,139.8
2018-07-08T15:10:22.211Z,141.3
2018-07-08T15:11:25.508Z,139.8
2018-07-08T15:12:28.832Z,139.8
2018-07-08T15:13:32.141Z,140.8
2018-07-08T15:14:34.571Z,140.8
2018-07-08T15:15:38.012Z,139.3
2018-07-08T15:16:41.599Z,141.3
2018-07-08T15:17:44.893Z,141.3
2018-07-08T15:18:48.299Z,140.3
2018-07-08T15:19:51.576Z,139.8
2018-07-08T15:20:54.814Z,140.3
2018-07-08T15:21:58.277Z,138.8
2018-07-08T15:23:01.359Z,140.3
2018-07-08T15:24:04.407Z,140.8
2018-07-08T15:25:07.830Z,141.3
2018-07-08T15:26:10.874Z,139.3
